Teterboro, NJ

8:13 AM EDT en Octubre 22, 2014 (GMT -0400)
Teterboro | Change Station
CLOSE
Current Station
Aeropuerto
Location: Teterboro,
Altura: 7 ft
Estaciones meteorológicas cercanas

Alt 7 ft 40.86 °N, 74.06 °W | Updated 22 minutes ago

Lluvia
Lluvia
55 ° F
Sensación térmica 55 ° F
N
8
Viento Variable Viento desde Norte

Hoy
Alta -- | Baja -- ° F
--% Posibilidad de precipitaciones
Ayer
Alta -- | Baja -- ° F
Precip. -- pul
7:15 AM 6:05 PM
Creciente menguante, 2% visible
Presión 29.92 pul
Visibilidad 5.0 Millas
Nubes Baja 1500 ft
Muy nublado 2200 ft
Nublado 3700 ft
Punto de rocío 51 ° F
Humedad 86%
Precipitaciones 0.27 pul
Espesor de la nieve No disponible.
UV 0 de una escala de 12
Polen .30 de una escala de 12
Calidad del aire No disponible.
Flu Activity Sporadic
METAR KTEB 221151Z 36007KT 5SM -RA FEW015 BKN022 OVC037 13/11 A2992 RMK AO2 SLP131 P0005 60027 70045 T01280106 10139 20128 51012

More Conditions Fewer Conditions

Presión 29.92 pul
Visibilidad 5.0 Millas
Nubes Baja 1500 ft
Muy nublado 2200 ft
Nublado 3700 ft
Punto de rocío 51 ° F
Humedad 86%
Precipitaciones 0.27 pul
Espesor de la nieve No disponible.
UV 0 de una escala de 12
Polen .30 de una escala de 12
Calidad del aire No disponible.
Flu Activity Sporadic
METAR KTEB 221151Z 36007KT 5SM -RA FEW015 BKN022 OVC037 13/11 A2992 RMK AO2 SLP131 P0005 60027 70045 T01280106 10139 20128 51012

More Conditions Fewer Conditions

10-Day Weather Forecast

Almanac

Astronomía

Oct. 22, 2014 Salida Puesta
Hora real 7:15 AM EDT 6:05 PM EDT
Crepúsculo civil 6:47 AM EDT 6:33 PM EDT
Crepúsculo náutico 6:15 AM EDT 7:05 PM EDT
Crepúsculo astronómico 5:43 AM EDT 7:37 PM EDT
Luna 5:53 AM EDT 5:31 PM EDT
Horas de luz 11h 46m
Horas de luz
10h 50m
Tomorrow will be 2m 32s shorter.
Creciente menguante, 2% of the Moon is Illuminated
Hoy
Creciente menguante
Oct 23
Nueva
Oct 30
Cuarto creciente
Nov 6
Luna llena
Nov 14
Cuarto menguante

Extremos de hoy

Máximos del estado Bajos del estado

Community

WunderPhotos

Upload Photos

1,763,906 ¡fotos cargadas!

Nearby

Grosos de nieve

Estación Profundido Altura
No tenemos constancia de nieve nueva.

Actividad de terremotos

Ciudad Distance Mag. Tiempo y dato
No hay informes recientes de la actividad sísmica.
Magnitud mínima muestra es 2,5.

Temperaturas de aguas costeras

Lugar Temperatura
Sandy Hook, NJ 61.0 ° F
The Battery, NY 63.0 ° F
Bergen Point West Reach, NJ 62.1 ° F
Kings Point, NY 61.0 ° F

Estaciones meteorológicas cercanas